createdAt,value
2017-11-15T00:02:16.138Z,12.20
2017-11-15T00:08:19.634Z,12.97
2017-11-15T00:14:23.393Z,13.70
2017-11-15T00:20:26.882Z,12.20
2017-11-15T00:26:30.329Z,12.30
2017-11-15T00:32:33.813Z,13.07
2017-11-15T00:38:37.273Z,12.93
2017-11-15T00:44:40.741Z,14.10
2017-11-15T00:50:44.210Z,13.53
2017-11-15T00:56:47.684Z,14.37
2017-11-15T01:02:51.206Z,11.63
2017-11-15T01:08:54.690Z,11.63
2017-11-15T01:14:58.932Z,12.03
2017-11-15T01:21:02.414Z,11.70
2017-11-15T01:27:05.890Z,11.57
2017-11-15T01:33:09.383Z,16.23
2017-11-15T01:39:13.211Z,12.23
2017-11-15T01:45:16.680Z,12.37
2017-11-15T01:51:20.149Z,12.80
2017-11-15T01:57:23.612Z,13.70
2017-11-15T02:03:27.452Z,12.23
2017-11-15T02:09:31.092Z,12.50
2017-11-15T02:15:34.833Z,11.90
2017-11-15T02:21:38.617Z,12.40
2017-11-15T02:27:42.080Z,11.60
2017-11-15T02:33:45.791Z,13.33
2017-11-15T02:39:49.249Z,12.70
2017-11-15T02:45:52.738Z,13.73
2017-11-15T02:51:56.261Z,14.00
2017-11-15T02:57:59.773Z,13.37
2017-11-15T03:04:04.821Z,14.33
2017-11-15T03:10:08.580Z,13.13
2017-11-15T03:16:12.067Z,13.40
2017-11-15T03:22:16.299Z,13.10
2017-11-15T03:28:19.792Z,12.40
2017-11-15T03:34:23.283Z,13.07
2017-11-15T03:40:27.099Z,12.70
2017-11-15T03:46:30.579Z,14.60
2017-11-15T03:52:34.058Z,13.73
2017-11-15T03:58:38.283Z,13.70
2017-11-15T04:04:41.785Z,16.00
2017-11-15T04:10:45.266Z,15.80
2017-11-15T04:16:49.833Z,14.03
2017-11-15T04:22:53.567Z,15.80
2017-11-15T04:28:57.039Z,14.30
2017-11-15T04:35:00.526Z,15.87
2017-11-15T04:41:03.998Z,13.90
2017-11-15T04:47:08.568Z,14.90
2017-11-15T04:53:12.046Z,15.97
2017-11-15T04:59:15.509Z,17.27
2017-11-15T05:05:19.713Z,15.67
2017-11-15T05:11:23.468Z,18.80
2017-11-15T05:17:27.275Z,18.00
2017-11-15T05:23:30.735Z,17.10
2017-11-15T05:29:34.983Z,19.17
2017-11-15T05:35:38.433Z,16.47
2017-11-15T05:41:41.916Z,17.30
2017-11-15T05:47:45.377Z,18.67
2017-11-15T05:53:49.136Z,19.03
2017-11-15T05:59:52.615Z,18.67
2017-11-15T06:05:56.453Z,20.07
2017-11-15T06:11:59.940Z,20.63
2017-11-15T06:18:03.960Z,20.60
2017-11-15T06:24:07.521Z,20.37
2017-11-15T06:30:10.823Z,21.23
2017-11-15T06:36:14.686Z,20.30
2017-11-15T06:42:18.140Z,20.37
2017-11-15T06:48:21.612Z,19.73
2017-11-15T06:54:25.067Z,19.00
2017-11-15T07:00:29.369Z,17.53
2017-11-15T07:06:33.719Z,20.43
2017-11-15T07:12:37.179Z,18.50
2017-11-15T07:18:41.427Z,19.77
2017-11-15T07:24:44.882Z,18.63
2017-11-15T07:30:48.696Z,20.10
2017-11-15T07:36:52.284Z,22.40
2017-11-15T07:42:55.904Z,21.13
2017-11-15T07:48:59.367Z,19.73
2017-11-15T07:55:02.978Z,21.23
2017-11-15T08:01:06.568Z,20.03
2017-11-15T08:07:10.881Z,20.83
2017-11-15T08:13:14.419Z,22.20
2017-11-15T08:19:17.977Z,22.17
2017-11-15T08:25:22.284Z,22.87
2017-11-15T08:31:26.525Z,30.77
2017-11-15T08:37:30.783Z,23.27
2017-11-15T08:43:34.234Z,22.60
2017-11-15T08:49:37.709Z,21.10
2017-11-15T08:55:41.937Z,19.57
2017-11-15T09:01:45.393Z,21.20
2017-11-15T09:07:49.629Z,20.10
2017-11-15T09:13:53.432Z,19.50
2017-11-15T09:19:56.937Z,21.33
2017-11-15T09:26:00.419Z,21.60
2017-11-15T09:32:03.962Z,20.13
2017-11-15T09:38:07.419Z,18.67
2017-11-15T09:44:11.648Z,20.47
2017-11-15T09:50:15.084Z,20.93
2017-11-15T09:56:18.851Z,18.63
2017-11-15T10:02:22.327Z,17.40
2017-11-15T10:08:26.114Z,19.13
2017-11-15T10:14:29.636Z,18.53
2017-11-15T10:20:33.126Z,18.13
2017-11-15T10:26:36.741Z,18.73
2017-11-15T10:32:40.296Z,17.43
2017-11-15T10:38:44.969Z,18.70
2017-11-15T10:44:48.423Z,19.70
2017-11-15T10:50:52.264Z,20.30
2017-11-15T10:56:55.722Z,18.47
2017-11-15T11:02:59.179Z,17.40
2017-11-15T11:09:03.013Z,19.20
2017-11-15T11:15:06.482Z,21.77
2017-11-15T11:21:10.885Z,19.20
2017-11-15T11:27:14.346Z,19.87
2017-11-15T11:33:17.818Z,17.87
2017-11-15T11:39:22.041Z,16.93
2017-11-15T11:45:25.511Z,17.27
2017-11-15T11:51:28.963Z,17.93
2017-11-15T11:57:33.438Z,18.13
2017-11-15T12:03:36.912Z,17.70
2017-11-15T12:09:40.716Z,17.70
2017-11-15T12:15:44.182Z,16.37
2017-11-15T12:21:47.643Z,17.13
2017-11-15T12:27:51.476Z,15.33
2017-11-15T12:33:54.939Z,16.53
2017-11-15T12:39:58.739Z,17.20
2017-11-15T12:46:02.889Z,16.27
2017-11-15T12:52:07.143Z,15.00
2017-11-15T12:58:10.593Z,15.87
2017-11-15T13:04:14.834Z,16.70
2017-11-15T13:10:18.626Z,15.07
2017-11-15T13:16:22.127Z,14.47
2017-11-15T13:22:25.613Z,15.13
2017-11-15T13:28:29.094Z,15.43
2017-11-15T13:34:32.860Z,16.10
2017-11-15T13:40:36.328Z,14.60
2017-11-15T13:46:40.151Z,14.37
2017-11-15T13:58:54.906Z,14.10
2017-11-15T14:04:58.372Z,15.17
2017-11-15T14:11:01.863Z,15.80
2017-11-15T14:17:05.391Z,14.53
2017-11-15T14:23:09.630Z,19.67
2017-11-15T14:29:13.112Z,14.53
2017-11-15T14:35:16.579Z,16.00
2017-11-15T14:41:20.044Z,17.07
2017-11-15T14:47:24.257Z,14.40
2017-11-15T14:53:28.495Z,14.60
2017-11-15T14:59:31.958Z,15.00
2017-11-15T15:05:35.433Z,14.97
2017-11-15T15:11:38.926Z,13.67
2017-11-15T15:17:42.383Z,15.00
2017-11-15T15:23:46.629Z,15.27
2017-11-15T15:29:50.071Z,15.20
2017-11-15T15:35:54.307Z,17.03
2017-11-15T15:41:57.767Z,15.70
2017-11-15T15:48:01.513Z,14.60
2017-11-15T15:54:05.006Z,15.07
2017-11-15T16:00:08.779Z,14.60
2017-11-15T16:06:12.302Z,14.10
2017-11-15T16:12:16.866Z,15.13
2017-11-15T16:18:20.345Z,15.33
2017-11-15T16:24:23.815Z,15.20
2017-11-15T16:30:27.317Z,15.27
2017-11-15T16:36:30.792Z,13.50
2017-11-15T16:42:34.270Z,13.90
2017-11-15T16:48:37.739Z,13.10
2017-11-15T16:54:41.563Z,13.90
2017-11-15T17:00:45.016Z,12.47
2017-11-15T17:06:48.509Z,13.27
2017-11-15T17:12:52.053Z,12.70
2017-11-15T17:18:56.313Z,12.67
2017-11-15T17:24:59.795Z,13.83
2017-11-15T17:31:03.287Z,15.50
2017-11-15T17:37:07.018Z,15.60
2017-11-15T17:43:11.248Z,15.10
2017-11-15T17:49:14.697Z,15.63
2017-11-15T17:55:18.149Z,13.50
2017-11-15T18:01:21.611Z,14.17
2017-11-15T18:07:25.069Z,13.30
2017-11-15T18:13:29.618Z,11.47
2017-11-15T18:19:33.166Z,14.30
2017-11-15T18:25:37.390Z,13.67
2017-11-15T18:31:40.879Z,14.70
2017-11-15T18:37:44.344Z,14.60
2017-11-15T18:43:47.798Z,15.53
2017-11-15T18:49:52.038Z,15.00
2017-11-15T18:55:55.577Z,15.40
2017-11-15T19:01:59.823Z,14.60
2017-11-15T19:08:03.307Z,15.90
2017-11-15T19:14:06.783Z,13.10
2017-11-15T19:20:10.251Z,13.83
2017-11-15T19:26:14.491Z,13.57
2017-11-15T19:32:17.961Z,13.70
2017-11-15T19:38:21.483Z,13.10
2017-11-15T19:44:24.955Z,14.47
2017-11-15T19:50:28.468Z,16.83
2017-11-15T19:56:31.961Z,16.03
2017-11-15T20:02:36.227Z,16.33
2017-11-15T20:08:39.704Z,16.60
2017-11-15T20:14:43.181Z,16.47
2017-11-15T20:20:46.651Z,16.03
2017-11-15T20:26:50.108Z,18.13
2017-11-15T20:32:54.368Z,17.07
2017-11-15T20:38:57.846Z,17.20
2017-11-15T20:45:01.303Z,17.60
2017-11-15T20:51:04.767Z,15.57
2017-11-15T20:57:09.034Z,14.90
2017-11-15T21:03:12.498Z,15.93
2017-11-15T21:09:16.068Z,18.80
2017-11-15T21:15:19.557Z,17.17
2017-11-15T21:21:23.032Z,17.10
2017-11-15T21:27:26.635Z,16.97
2017-11-15T21:33:30.104Z,18.80
2017-11-15T21:39:33.595Z,18.70
2017-11-15T21:45:37.060Z,17.10
2017-11-15T21:51:40.558Z,18.50
2017-11-15T21:57:44.025Z,17.70
2017-11-15T22:03:47.509Z,18.93
2017-11-15T22:09:50.979Z,18.60
2017-11-15T22:15:55.207Z,18.33
2017-11-15T22:21:58.735Z,18.30
2017-11-15T22:28:02.213Z,17.40
2017-11-15T22:34:05.697Z,19.50
2017-11-15T22:40:09.162Z,20.50
2017-11-15T22:46:12.632Z,19.53
2017-11-15T22:52:16.090Z,18.10
2017-11-15T22:58:20.330Z,18.53
2017-11-15T23:04:23.897Z,20.03
2017-11-15T23:10:27.387Z,18.30
2017-11-15T23:16:31.067Z,18.60
2017-11-15T23:22:34.533Z,18.30
2017-11-15T23:28:38.814Z,17.90
2017-11-15T23:34:42.395Z,17.20
2017-11-15T23:40:45.867Z,18.00
2017-11-15T23:46:49.337Z,18.27
2017-11-15T23:52:52.819Z,17.50
2017-11-15T23:58:56.413Z,15.67
